createdAt,value
2023-02-09T00:00:29.735Z,5.00
2023-02-09T00:05:34.530Z,5.32
2023-02-09T00:10:40.203Z,5.93
2023-02-09T00:15:50.177Z,5.22
2023-02-09T00:21:02.621Z,6.85
2023-02-09T00:26:08.552Z,5.28
2023-02-09T00:31:13.840Z,6.20
2023-02-09T00:36:18.994Z,6.35
2023-02-09T00:41:43.066Z,6.47
2023-02-09T00:46:46.409Z,5.85
2023-02-09T00:51:51.529Z,7.20
2023-02-09T00:56:54.894Z,6.18
2023-02-09T01:01:58.575Z,6.10
2023-02-09T01:07:03.479Z,6.38
2023-02-09T01:12:07.547Z,5.85
2023-02-09T01:17:11.472Z,6.93
2023-02-09T01:22:16.710Z,7.05
2023-02-09T01:27:20.681Z,6.45
2023-02-09T01:32:24.249Z,6.45
2023-02-09T01:37:29.076Z,6.80
2023-02-09T01:42:32.529Z,6.68
2023-02-09T01:47:43.349Z,7.18
2023-02-09T01:52:49.634Z,6.97
2023-02-09T01:57:57.647Z,7.22
2023-02-09T02:03:05.699Z,7.35
2023-02-09T02:08:17.563Z,8.48
2023-02-09T02:13:21.725Z,9.13
2023-02-09T02:18:46.668Z,9.07
2023-02-09T02:24:07.403Z,8.90
2023-02-09T02:29:51.044Z,8.10
2023-02-09T02:35:02.915Z,7.70
2023-02-09T02:40:15.371Z,8.57
2023-02-09T02:45:30.642Z,8.27
2023-02-09T02:50:38.894Z,8.25
2023-02-09T02:55:46.292Z,8.50
2023-02-09T03:00:53.554Z,8.43
2023-02-09T03:06:00.482Z,8.20
2023-02-09T03:11:04.010Z,8.80
2023-02-09T03:16:22.595Z,8.77
2023-02-09T03:21:37.932Z,9.50
2023-02-09T03:26:46.987Z,8.73
2023-02-09T03:31:51.649Z,9.45
2023-02-09T03:36:58.864Z,10.02
2023-02-09T03:42:02.207Z,9.32
2023-02-09T03:47:08.071Z,9.27
2023-02-09T03:52:14.911Z,10.20
2023-02-09T03:57:18.474Z,9.07
2023-02-09T04:02:22.122Z,9.30
2023-02-09T04:07:26.932Z,9.57
2023-02-09T04:12:30.321Z,8.85
2023-02-09T04:17:33.767Z,8.43
2023-02-09T04:22:38.639Z,8.82
2023-02-09T04:32:45.341Z,9.05
2023-02-09T04:37:50.248Z,8.50
2023-02-09T04:42:53.920Z,9.30
2023-02-09T04:47:57.307Z,8.80
2023-02-09T04:53:02.443Z,8.80
2023-02-09T04:58:23.520Z,8.23
2023-02-09T05:03:27.864Z,8.80
2023-02-09T05:08:33.289Z,11.38
2023-02-09T05:13:36.717Z,9.25
2023-02-09T05:18:40.114Z,9.35
2023-02-09T05:23:45.097Z,9.40
2023-02-09T05:28:48.535Z,9.20
2023-02-09T05:33:51.870Z,9.02
2023-02-09T05:38:56.612Z,9.48
2023-02-09T05:43:59.990Z,9.50
2023-02-09T05:49:03.656Z,9.98
2023-02-09T05:54:08.562Z,9.35
2023-02-09T06:04:15.148Z,9.70
2023-02-09T06:09:20.677Z,9.63
2023-02-09T06:14:24.201Z,9.68
2023-02-09T06:19:27.552Z,9.38
2023-02-09T06:24:32.361Z,9.57
2023-02-09T06:29:35.907Z,8.85
2023-02-09T06:34:39.430Z,8.70
2023-02-09T06:39:44.383Z,9.35
2023-02-09T06:49:50.995Z,9.20
2023-02-09T06:54:56.116Z,8.93
2023-02-09T07:05:02.827Z,8.88
2023-02-09T07:10:10.311Z,8.90
2023-02-09T07:15:15.414Z,8.98
2023-02-09T07:20:19.021Z,8.40
2023-02-09T07:25:23.829Z,8.60
2023-02-09T07:30:27.182Z,7.53
2023-02-09T07:35:30.543Z,7.68
2023-02-09T07:40:35.337Z,7.43
2023-02-09T07:45:38.764Z,8.48
2023-02-09T07:50:42.116Z,8.18
2023-02-09T07:55:47.226Z,7.63
2023-02-09T08:00:52.015Z,8.10
2023-02-09T08:06:00.262Z,7.53
2023-02-09T08:11:05.740Z,7.43
2023-02-09T08:16:14.172Z,7.80
2023-02-09T08:21:19.560Z,7.38
2023-02-09T08:26:24.872Z,7.30
2023-02-09T08:31:28.453Z,7.80
2023-02-09T08:36:34.470Z,7.55
2023-02-09T08:41:39.372Z,7.72
2023-02-09T08:51:46.217Z,9.32
2023-02-09T08:56:51.157Z,10.80
2023-02-09T09:06:58.685Z,10.40
2023-02-09T09:12:03.609Z,9.90
2023-02-09T09:22:10.266Z,9.40
2023-02-09T09:27:15.016Z,8.95
2023-02-09T09:32:18.925Z,8.48
2023-02-09T09:37:22.591Z,9.20
2023-02-09T09:42:35.912Z,8.73
2023-02-09T09:47:41.686Z,9.70
2023-02-09T09:52:48.567Z,9.45
2023-02-09T09:57:58.500Z,9.27
2023-02-09T10:03:01.859Z,9.35
2023-02-09T10:08:12.042Z,8.65
2023-02-09T10:13:22.374Z,8.95
2023-02-09T10:18:26.676Z,8.98
2023-02-09T10:23:40.017Z,9.68
2023-02-09T10:28:47.070Z,8.80
2023-02-09T10:33:55.754Z,9.70
2023-02-09T10:39:16.852Z,9.70
2023-02-09T10:44:25.608Z,9.30
2023-02-09T10:49:35.454Z,8.70
2023-02-09T10:54:43.247Z,8.65
2023-02-09T10:59:52.708Z,7.53
2023-02-09T11:04:56.147Z,7.93
2023-02-09T11:10:01.257Z,8.40
2023-02-09T11:15:13.950Z,8.10
2023-02-09T11:20:24.719Z,9.15
2023-02-09T11:25:30.348Z,8.82
2023-02-09T11:30:53.077Z,8.52
2023-02-09T11:36:10.188Z,8.05
2023-02-09T11:41:35.026Z,8.05
2023-02-09T11:46:42.070Z,7.53
2023-02-09T11:51:47.716Z,7.68
2023-02-09T11:56:54.461Z,7.85
2023-02-09T12:02:06.389Z,7.60
2023-02-09T12:07:19.502Z,7.93
2023-02-09T12:12:30.477Z,6.72
2023-02-09T12:17:43.412Z,6.88
2023-02-09T12:22:58.191Z,7.30
2023-02-09T12:28:19.816Z,7.20
2023-02-09T12:33:31.496Z,7.57
2023-02-09T12:39:07.390Z,7.47
2023-02-09T12:44:39.544Z,7.45
2023-02-09T12:49:45.163Z,6.50
2023-02-09T12:54:52.221Z,6.60
2023-02-09T13:00:43.104Z,6.53
2023-02-09T13:05:50.275Z,6.20
2023-02-09T13:10:58.997Z,6.43
2023-02-09T13:16:43.697Z,6.80
2023-02-09T13:22:00.635Z,7.00
2023-02-09T13:27:04.492Z,6.72
2023-02-09T13:32:22.137Z,6.85
2023-02-09T13:37:34.471Z,7.00
2023-02-09T13:42:38.441Z,6.63
2023-02-09T13:47:44.192Z,5.90
2023-02-09T13:52:50.854Z,6.90
2023-02-09T13:58:00.337Z,7.00
2023-02-09T14:03:12.467Z,8.18
2023-02-09T14:08:19.653Z,6.68
2023-02-09T14:13:26.481Z,7.57
2023-02-09T14:18:33.382Z,6.55
2023-02-09T14:23:38.473Z,6.82
2023-02-09T14:28:42.692Z,7.20
2023-02-09T14:33:49.127Z,7.30
2023-02-09T14:38:54.527Z,6.93
2023-02-09T14:44:03.548Z,7.07
2023-02-09T14:49:06.892Z,7.95
2023-02-09T14:54:24.127Z,7.45
2023-02-09T14:59:27.566Z,8.13
2023-02-09T15:04:30.952Z,8.45
2023-02-09T15:09:39.229Z,8.20
2023-02-09T15:14:45.294Z,8.10
2023-02-09T15:19:49.072Z,7.43
2023-02-09T15:24:54.716Z,7.38
2023-02-09T15:30:00.520Z,6.75
2023-02-09T15:35:08.908Z,6.20
2023-02-09T15:40:39.643Z,5.78
2023-02-09T15:46:00.376Z,5.47
2023-02-09T15:51:04.819Z,5.15
2023-02-09T15:56:10.572Z,6.10
2023-02-09T16:01:16.955Z,4.40
2023-02-09T16:06:24.864Z,4.07
2023-02-09T16:11:33.300Z,4.53
2023-02-09T16:16:36.994Z,4.63
2023-02-09T16:21:42.750Z,5.53
2023-02-09T16:26:47.867Z,6.20
2023-02-09T16:31:51.472Z,6.30
2023-02-09T16:36:54.981Z,7.03
2023-02-09T16:42:01.236Z,6.75
2023-02-09T16:47:11.106Z,7.60
2023-02-09T16:52:18.098Z,6.55
2023-02-09T16:57:24.388Z,5.05
2023-02-09T17:02:38.139Z,5.20
2023-02-09T17:07:53.565Z,5.30
2023-02-09T17:13:01.926Z,4.80
2023-02-09T17:18:08.251Z,4.70
2023-02-09T17:23:16.296Z,4.40
2023-02-09T17:28:21.097Z,4.25
2023-02-09T17:38:31.274Z,4.45
2023-02-09T17:43:36.335Z,4.57
2023-02-09T17:53:43.004Z,4.72
2023-02-09T17:58:48.407Z,4.97
2023-02-09T18:03:51.927Z,4.40
2023-02-09T18:08:55.514Z,4.55
2023-02-09T18:14:00.444Z,3.70
2023-02-09T18:24:07.861Z,3.10
2023-02-09T18:29:12.630Z,3.28
2023-02-09T18:34:16.441Z,3.00
2023-02-09T18:39:19.869Z,2.78
2023-02-09T18:44:29.404Z,3.05
2023-02-09T18:49:32.961Z,2.28
2023-02-09T18:54:37.059Z,2.22
2023-02-09T18:59:41.842Z,2.77
2023-02-09T19:04:45.325Z,2.33
2023-02-09T19:09:48.925Z,2.40
2023-02-09T19:14:53.912Z,2.42
2023-02-09T19:19:59.137Z,2.08
2023-02-09T19:25:02.632Z,2.20
2023-02-09T19:30:09.095Z,1.88
2023-02-09T19:35:12.658Z,2.08
2023-02-09T19:40:21.695Z,2.10
2023-02-09T19:45:26.633Z,2.40
2023-02-09T19:50:30.210Z,1.80
2023-02-09T19:55:33.867Z,2.13
2023-02-09T20:00:39.595Z,2.03
2023-02-09T20:05:43.609Z,1.70
2023-02-09T20:10:47.677Z,2.20
2023-02-09T20:15:52.665Z,2.03
2023-02-09T20:20:56.194Z,2.08
2023-02-09T20:25:59.596Z,2.45
2023-02-09T20:31:04.541Z,2.40
2023-02-09T20:36:09.740Z,3.22
2023-02-09T20:41:15.317Z,2.30
2023-02-09T20:46:42.447Z,2.70
2023-02-09T20:51:47.065Z,2.47
2023-02-09T20:56:50.979Z,2.75
2023-02-09T21:01:55.920Z,2.87
2023-02-09T21:12:04.084Z,3.00
2023-02-09T21:17:09.020Z,2.85
2023-02-09T21:22:12.444Z,3.15
2023-02-09T21:27:16.118Z,3.83
2023-02-09T21:32:21.167Z,4.15
2023-02-09T21:37:24.531Z,3.42
2023-02-09T21:42:28.929Z,3.72
2023-02-09T21:47:36.175Z,4.35
2023-02-09T21:52:39.713Z,3.92
2023-02-09T21:57:43.046Z,4.68
2023-02-09T22:02:47.994Z,4.60
2023-02-09T22:12:54.555Z,4.25
2023-02-09T22:17:59.297Z,4.43
2023-02-09T22:23:02.830Z,5.00
2023-02-09T22:28:06.909Z,5.00
2023-02-09T22:33:11.779Z,4.87
2023-02-09T22:43:18.436Z,5.13
2023-02-09T22:48:23.323Z,5.35
2023-02-09T22:58:31.271Z,4.78
2023-02-09T23:03:36.785Z,4.88
2023-02-09T23:08:40.162Z,5.30
2023-02-09T23:13:44.176Z,4.55
2023-02-09T23:18:50.635Z,5.00
2023-02-09T23:23:54.856Z,4.28
2023-02-09T23:29:00.173Z,4.82
2023-02-09T23:34:05.689Z,4.50
2023-02-09T23:39:09.050Z,4.65
2023-02-09T23:44:13.443Z,4.72
2023-02-09T23:49:18.334Z,4.70
2023-02-09T23:59:25.078Z,4.40
